Time;durP1;ratioP1;P1;durP2;ratioP2;P2;SDS_P1;SDS_P2;PMS_P1;PMS_P2;Temp;Humidity;BMP_temperature;BMP_pressure;BME280_temperature;BME280_humidity;BME280_pressure;Samples;Min_cycle;Max_cycle;Signal;HPM_P1;HPM_P2
2021/03/06 00:00:16;;;;;;;9.00;4.15;;;;;;;-3.48;76.03;100706.91;1765944;80;22116;-72
2021/03/06 00:02:45;;;;;;;8.35;3.70;;;;;;;-3.56;76.13;100708.41;1753121;80;21263;-73
2021/03/06 00:05:13;;;;;;;9.35;3.37;;;;;;;-3.64;76.28;100710.75;1764776;80;21587;-72
2021/03/06 00:07:41;;;;;;;9.70;3.27;;;;;;;-3.71;76.31;100708.88;1768064;80;21611;-72
2021/03/06 00:10:11;;;;;;;4.53;2.45;;;;;;;-3.75;76.35;100706.67;1769611;80;21186;-72
2021/03/06 00:12:43;;;;;;;6.05;2.87;;;;;;;-3.80;76.37;100704.81;1766586;80;21239;-72
2021/03/06 00:15:14;;;;;;;5.67;2.75;;;;;;;-3.89;76.33;100712.68;1761630;80;21094;-73
2021/03/06 00:17:41;;;;;;;5.00;2.83;;;;;;;-3.96;76.41;100705.66;1768693;79;21287;-73
2021/03/06 00:20:09;;;;;;;5.08;2.80;;;;;;;-4.04;76.41;100700.77;1763484;80;21171;-72
2021/03/06 00:22:37;;;;;;;5.75;3.12;;;;;;;-4.14;76.34;100702.21;1768497;80;21163;-72
2021/03/06 00:25:10;;;;;;;5.70;3.42;;;;;;;-4.27;76.31;100689.52;1765874;80;21629;-72
2021/03/06 00:27:38;;;;;;;5.50;2.67;;;;;;;-4.35;76.43;100696.49;1761436;80;21168;-73
2021/03/06 00:30:12;;;;;;;4.85;2.72;;;;;;;-4.39;76.60;100699.38;1766003;80;20999;-73
2021/03/06 00:32:39;;;;;;;5.40;2.87;;;;;;;-4.47;76.53;100690.64;1767602;80;21188;-73
2021/03/06 00:35:09;;;;;;;8.35;3.12;;;;;;;-4.58;76.42;100694.56;1763482;80;21260;-73
2021/03/06 00:37:36;;;;;;;6.00;3.10;;;;;;;-4.58;76.56;100692.01;1762815;80;21839;-73
2021/03/06 00:40:06;;;;;;;8.13;3.90;;;;;;;-4.61;76.59;100697.02;1766821;80;21200;-72
2021/03/06 00:42:33;;;;;;;7.70;4.30;;;;;;;-4.67;76.50;100695.57;1770512;79;21226;-72
2021/03/06 00:45:01;;;;;;;8.18;4.03;;;;;;;-4.76;76.51;100700.84;1759414;80;21184;-72
2021/03/06 00:47:28;;;;;;;8.90;4.00;;;;;;;-4.85;76.50;100701.81;1760274;80;21531;-72
2021/03/06 00:49:55;;;;;;;9.28;3.42;;;;;;;-4.95;76.51;100704.50;1749706;81;21252;-73
2021/03/06 00:52:22;;;;;;;6.50;3.45;;;;;;;-5.04;76.51;100696.97;1751710;80;21077;-72
2021/03/06 00:54:49;;;;;;;7.62;4.25;;;;;;;-5.12;76.53;100702.26;1746772;81;21738;-73
2021/03/06 00:57:16;;;;;;;7.33;3.62;;;;;;;-5.17;76.51;100700.41;1754587;81;21184;-72
2021/03/06 00:59:43;;;;;;;8.48;3.35;;;;;;;-5.22;76.55;100709.58;1748406;81;22168;-73
2021/03/06 01:02:10;;;;;;;9.15;4.03;;;;;;;-5.27;76.60;100702.19;1750565;80;22318;-72
2021/03/06 01:04:37;;;;;;;7.92;4.30;;;;;;;-5.26;76.75;100711.58;1747235;81;21204;-72
2021/03/06 01:07:04;;;;;;;8.18;3.75;;;;;;;-5.24;76.84;100697.61;1745917;81;21117;-72
2021/03/06 01:09:31;;;;;;;8.00;4.00;;;;;;;-5.22;76.86;100707.03;1745257;81;21425;-72
2021/03/06 01:11:58;;;;;;;7.20;3.75;;;;;;;-5.24;76.83;100698.50;1745355;81;21144;-72
2021/03/06 01:14:25;;;;;;;9.08;3.87;;;;;;;-5.24;76.97;100703.59;1749071;81;21846;-72
2021/03/06 01:16:52;;;;;;;7.15;4.42;;;;;;;-5.24;76.92;100706.14;1745315;81;21144;-72
2021/03/06 01:19:19;;;;;;;9.13;4.75;;;;;;;-5.24;76.95;100697.61;1746483;81;21217;-73
2021/03/06 01:21:46;;;;;;;14.38;4.67;;;;;;;-5.23;76.92;100701.91;1749221;80;21175;-72
2021/03/06 01:24:13;;;;;;;11.40;4.87;;;;;;;-5.25;76.91;100712.03;1749567;81;21082;-72
2021/03/06 01:26:42;;;;;;;11.78;4.72;;;;;;;-5.29;76.88;100697.48;1754193;81;21424;-72
2021/03/06 01:29:09;;;;;;;10.55;5.03;;;;;;;-5.28;76.98;100696.66;1746276;81;21071;-72
2021/03/06 01:31:36;;;;;;;12.10;5.55;;;;;;;-5.28;77.01;100694.11;1752357;81;21066;-72
2021/03/06 01:34:03;;;;;;;11.18;5.72;;;;;;;-5.31;76.90;100690.20;1748326;81;21666;-71
2021/03/06 01:36:29;;;;;;;12.15;5.87;;;;;;;-5.39;76.80;100690.35;1751006;81;21202;-73
2021/03/06 01:38:56;;;;;;;12.35;5.47;;;;;;;-5.49;76.77;100694.67;1748686;80;21860;-73
2021/03/06 01:41:23;;;;;;;17.50;6.55;;;;;;;-5.51;76.85;100693.78;1745731;81;21195;-72
2021/03/06 01:43:50;;;;;;;14.15;5.62;;;;;;;-5.52;76.93;100685.67;1750944;81;21021;-73
2021/03/06 01:46:17;;;;;;;10.38;5.50;;;;;;;-5.55;76.80;100688.11;1756480;80;21152;-72
2021/03/06 01:48:44;;;;;;;13.85;6.20;;;;;;;-5.67;76.71;100684.34;1755646;80;21210;-73
2021/03/06 01:51:11;;;;;;;9.38;5.70;;;;;;;-5.76;76.78;100685.31;1766913;80;21236;-73
2021/03/06 01:53:39;;;;;;;11.88;5.20;;;;;;;-5.83;76.84;100679.55;1766310;78;21770;-72
2021/03/06 01:56:06;;;;;;;9.93;5.10;;;;;;;-5.95;76.83;100680.03;1766006;80;21767;-72
2021/03/06 01:58:33;;;;;;;15.58;7.62;;;;;;;-6.07;76.81;100684.70;1769296;80;21682;-72
2021/03/06 02:01:01;;;;;;;14.73;8.30;;;;;;;-6.18;76.91;100686.86;1768002;80;21402;-72
2021/03/06 02:03:28;;;;;;;19.05;9.00;;;;;;;-6.25;77.06;100692.52;1762175;80;21454;-73
2021/03/06 02:05:55;;;;;;;17.45;8.03;;;;;;;-6.29;77.14;100689.42;1763428;80;21711;-72
2021/03/06 02:08:22;;;;;;;18.62;7.78;;;;;;;-6.32;77.22;100680.42;1766618;80;21081;-73
2021/03/06 02:10:49;;;;;;;19.45;8.35;;;;;;;-6.36;77.26;100680.73;1763321;80;21208;-72
2021/03/06 02:13:36;;;;;;;16.00;6.78;;;;;;;-6.37;77.32;100676.84;1770866;78;21594;-73
2021/03/06 02:16:35;;;;;;;11.12;5.50;;;;;;;-6.39;77.30;100679.73;1765751;78;22313;-73
2021/03/06 02:19:28;;;;;;;10.38;5.37;;;;;;;-6.41;77.33;100666.98;1687687;83;21246;-73
2021/03/06 02:22:09;;;;;;;10.18;5.28;;;;;;;-6.49;77.12;100671.33;1651550;83;21244;-72
2021/03/06 02:24:45;;;;;;;10.68;5.12;;;;;;;-6.58;77.17;100668.91;1679194;84;21191;-73
2021/03/06 02:27:41;;;;;;;8.15;4.55;;;;;;;-6.65;77.17;100669.47;1686409;83;21218;-72
2021/03/06 02:30:11;;;;;;;9.18;5.10;;;;;;;-6.72;77.13;100673.88;1694492;83;21654;-72
2021/03/06 02:32:44;;;;;;;10.80;5.47;;;;;;;-6.81;77.15;100670.97;1692192;83;21195;-72
2021/03/06 02:35:18;;;;;;;9.98;4.25;;;;;;;-6.89;77.18;100679.59;1649512;84;21199;-72
2021/03/06 02:38:07;;;;;;;9.23;4.67;;;;;;;-6.90;77.31;100667.69;1822986;76;22544;-71
2021/03/06 02:40:40;;;;;;;7.58;3.92;;;;;;;-6.99;77.31;100674.55;1802885;78;21046;-72
2021/03/06 02:43:09;;;;;;;6.60;4.15;;;;;;;-7.04;77.25;100670.96;1774728;78;21197;-72
2021/03/06 02:45:40;;;;;;;9.33;4.42;;;;;;;-7.12;77.24;100668.53;1801292;78;20989;-72
2021/03/06 02:48:08;;;;;;;10.98;4.67;;;;;;;-7.19;77.30;100676.72;1799567;78;21097;-71
2021/03/06 02:50:35;;;;;;;11.90;5.58;;;;;;;-7.21;77.45;100669.44;1799147;78;21605;-71
2021/03/06 02:53:02;;;;;;;10.28;5.95;;;;;;;-7.22;77.55;100673.66;1800389;78;21084;-71
2021/03/06 02:55:29;;;;;;;10.45;4.75;;;;;;;-7.24;77.53;100659.17;1798925;78;21203;-72
2021/03/06 02:58:05;;;;;;;12.78;4.92;;;;;;;-7.24;77.54;100668.06;1794787;77;21677;-71
2021/03/06 03:00:46;;;;;;;9.90;4.50;;;;;;;-7.25;77.62;100667.61;1790862;78;21052;-72
2021/03/06 03:03:25;;;;;;;9.55;4.97;;;;;;;-7.24;77.72;100664.25;1797444;78;21218;-72
2021/03/06 03:06:11;;;;;;;11.60;5.58;;;;;;;-7.24;77.75;100661.71;1795088;78;21629;-72
2021/03/06 03:08:46;;;;;;;8.63;5.00;;;;;;;-7.28;77.66;100664.55;1794710;77;21219;-73
2021/03/06 03:11:18;;;;;;;10.88;5.65;;;;;;;-7.27;77.67;100659.05;1800344;77;21836;-73
2021/03/06 03:13:55;;;;;;;11.53;5.12;;;;;;;-7.27;77.74;100658.65;1761584;78;21222;-73
2021/03/06 03:16:33;;;;;;;10.05;5.22;;;;;;;-7.26;77.69;100663.31;1802471;78;21155;-72
2021/03/06 03:19:05;;;;;;;10.63;5.47;;;;;;;-7.24;77.80;100656.64;1795890;78;21234;-72
2021/03/06 03:21:35;;;;;;;8.93;5.60;;;;;;;-7.22;77.91;100662.65;1794791;78;21140;-72
2021/03/06 03:24:10;;;;;;;15.38;6.12;;;;;;;-7.22;77.90;100654.63;1800718;78;21262;-72
2021/03/06 03:26:39;;;;;;;17.20;6.20;;;;;;;-7.19;78.04;100660.23;1797638;78;21198;-73
2021/03/06 03:29:08;;;;;;;13.00;5.90;;;;;;;-7.16;77.99;100660.34;1798988;78;21700;-73
2021/03/06 03:31:37;;;;;;;15.93;6.72;;;;;;;-7.16;77.91;100661.61;1798282;78;21202;-73
2021/03/06 03:34:07;;;;;;;13.15;5.85;;;;;;;-7.17;77.92;100664.08;1796861;77;22115;-72
2021/03/06 03:36:35;;;;;;;12.53;6.42;;;;;;;-7.15;77.85;100667.14;1798574;78;21986;-72
2021/03/06 03:39:03;;;;;;;;;;;;;;;-7.18;77.82;100667.02;1759280;78;21292;-72
2021/03/06 03:41:32;;;;;;;16.00;6.65;;;;;;;-7.19;77.84;100665.30;1794518;78;20420;-72
2021/03/06 03:44:03;;;;;;;12.20;5.92;;;;;;;-7.23;77.77;100665.97;1796665;78;21183;-72
2021/03/06 03:46:31;;;;;;;14.10;5.75;;;;;;;-7.27;77.77;100659.05;1798218;78;21190;-71
2021/03/06 03:49:03;;;;;;;12.82;5.50;;;;;;;-7.33;77.78;100671.51;1794857;78;21252;-72
2021/03/06 03:51:32;;;;;;;14.07;4.90;;;;;;;-7.34;77.86;100669.75;1796717;78;21187;-72
2021/03/06 03:53:59;;;;;;;9.30;4.83;;;;;;;-7.37;77.79;100664.56;1793669;77;21644;-72
2021/03/06 03:56:27;;;;;;;9.20;5.22;;;;;;;-7.44;77.76;100674.47;1798192;77;21676;-72
2021/03/06 03:58:54;;;;;;;9.40;5.05;;;;;;;-7.47;77.85;100674.34;1800023;78;21206;-71
2021/03/06 04:01:21;;;;;;;9.73;4.85;;;;;;;-7.48;77.87;100672.62;1791988;77;21156;-72
2021/03/06 04:03:48;;;;;;;11.80;6.60;;;;;;;-7.52;77.82;100673.29;1792240;78;21186;-71
2021/03/06 04:06:15;;;;;;;15.70;6.65;;;;;;;-7.55;77.86;100673.17;1791674;77;21219;-71
2021/03/06 04:08:42;;;;;;;12.18;5.80;;;;;;;-7.56;77.94;100666.38;1793586;78;21603;-72
2021/03/06 04:11:10;;;;;;;17.23;6.10;;;;;;;-7.54;78.02;100664.74;1792649;78;21608;-71
2021/03/06 04:13:37;;;;;;;9.50;5.37;;;;;;;-7.52;78.12;100668.22;1792396;78;21168;-72
2021/03/06 04:16:04;;;;;;;14.07;6.42;;;;;;;-7.50;78.23;100666.62;1798284;78;21196;-72
2021/03/06 04:18:31;;;;;;;12.82;6.83;;;;;;;-7.45;78.32;100657.53;1796532;78;21191;-71
2021/03/06 04:20:58;;;;;;;27.73;18.37;;;;;;;-7.41;78.35;100658.51;1796654;78;21206;-72
2021/03/06 04:23:25;;;;;;;14.83;9.55;;;;;;;-7.36;78.41;100661.24;1793378;78;21270;-72
2021/03/06 04:25:52;;;;;;;15.43;7.30;;;;;;;-7.35;78.29;100660.42;1794286;77;21653;-72
2021/03/06 04:28:20;;;;;;;13.60;6.08;;;;;;;-7.34;78.32;100656.66;1758037;80;21211;-72
2021/03/06 04:30:47;;;;;;;12.40;6.20;;;;;;;-7.32;78.27;100660.54;1726230;81;21191;-72
2021/03/06 04:33:14;;;;;;;11.50;5.30;;;;;;;-7.34;78.26;100659.61;1758597;80;21170;-71
2021/03/06 04:35:41;;;;;;;11.95;5.60;;;;;;;-7.33;78.38;100661.36;1755253;80;21614;-71
2021/03/06 04:38:08;;;;;;;12.88;6.00;;;;;;;-7.33;78.46;100662.22;1735912;80;21204;-72
2021/03/06 04:40:35;;;;;;;9.90;5.35;;;;;;;-7.34;78.27;100664.68;1742861;80;21698;-72
2021/03/06 04:43:02;;;;;;;12.80;5.97;;;;;;;-7.37;78.24;100665.83;1760208;80;21203;-72
2021/03/06 04:47:59;;;;;;;10.58;5.25;;;;;;;-7.44;78.16;100654.17;1853840;76;22889;-71
2021/03/06 04:50:26;;;;;;;12.95;5.85;;;;;;;-7.55;78.04;100662.16;1823127;77;21397;-72
2021/03/06 04:53:23;;;;;;;11.22;5.25;;;;;;;-7.61;78.01;100660.25;1830231;77;22803;-71
2021/03/06 04:55:50;;;;;;;12.65;5.67;;;;;;;-7.70;78.09;100667.45;1795705;78;22226;-71
2021/03/06 04:58:17;;;;;;;11.97;5.45;;;;;;;-7.72;78.16;100670.34;1797426;77;21210;-71
2021/03/06 05:00:44;;;;;;;11.80;6.97;;;;;;;-7.76;78.11;100665.94;1795323;78;21260;-71
2021/03/06 05:03:11;;;;;;;12.47;5.75;;;;;;;-7.77;78.33;100664.22;1791472;77;21248;-71
2021/03/06 05:05:38;;;;;;;11.60;5.33;;;;;;;-7.73;78.54;100669.86;1796538;78;22225;-71
2021/03/06 05:08:05;;;;;;;10.10;5.78;;;;;;;-7.67;78.72;100662.53;1795018;77;21250;-71
2021/03/06 05:10:32;;;;;;;;;;;;;;;-7.61;78.77;100665.31;1797468;78;21805;-71
2021/03/06 05:12:59;;;;;;;15.00;4.72;;;;;;;-7.57;78.78;100661.22;1793117;77;20936;-72
2021/03/06 05:15:26;;;;;;;11.97;5.10;;;;;;;-7.56;78.75;100660.03;1798911;77;21065;-71
2021/03/06 05:17:54;;;;;;;11.05;5.80;;;;;;;-7.55;78.77;100664.30;1757786;78;21187;-71
2021/03/06 05:20:21;;;;;;;9.43;4.72;;;;;;;-7.51;78.81;100666.13;1744721;80;26808;-71
2021/03/06 05:22:48;;;;;;;12.82;5.30;;;;;;;-7.51;78.77;100664.86;1758255;80;25677;-71
2021/03/06 05:25:15;;;;;;;15.58;5.83;;;;;;;-7.49;78.72;100663.67;1759066;79;21451;-71
2021/03/06 05:27:42;;;;;;;15.25;6.10;;;;;;;-7.47;78.81;100661.66;1729796;81;21701;-71
2021/03/06 05:30:10;;;;;;;10.45;5.97;;;;;;;-7.44;78.82;100652.91;1740401;80;21239;-71
2021/03/06 05:32:38;;;;;;;14.70;6.05;;;;;;;-7.39;78.77;100659.44;1729889;80;21646;-71
2021/03/06 05:35:06;;;;;;;9.88;5.05;;;;;;;-7.33;78.83;100662.62;1747742;81;22112;-72
2021/03/06 05:37:33;;;;;;;12.43;6.50;;;;;;;-7.26;78.90;100651.89;1763306;79;21168;-71
2021/03/06 05:40:00;;;;;;;11.50;6.25;;;;;;;-7.20;78.86;100655.94;1735879;81;21219;-70
2021/03/06 05:42:28;;;;;;;12.82;7.30;;;;;;;-7.03;79.04;100652.41;1735491;80;21673;-71
2021/03/06 05:44:57;;;;;;;15.85;9.08;;;;;;;-6.65;79.29;100644.48;1736732;81;21281;-72
2021/03/06 05:47:24;;;;;;;13.93;8.28;;;;;;;-6.24;79.20;100643.44;1733498;81;21700;-70
2021/03/06 05:49:51;;;;;;;15.60;8.48;;;;;;;-5.82;79.05;100646.96;1739466;81;21224;-70
2021/03/06 05:52:20;;;;;;;16.97;8.58;;;;;;;-5.37;78.72;100642.91;1732205;81;28457;-71
2021/03/06 05:54:49;;;;;;;18.75;8.50;;;;;;;-4.99;78.41;100649.59;1717270;82;21238;-72
2021/03/06 05:57:17;;;;;;;17.00;7.65;;;;;;;-4.63;77.95;100651.09;1718920;82;21161;-72
2021/03/06 05:59:46;;;;;;;16.97;8.30;;;;;;;-4.31;77.63;100652.02;1711438;82;21235;-70
2021/03/06 06:02:18;;;;;;;14.23;8.50;;;;;;;-4.02;77.36;100649.38;1717523;81;21501;-72
2021/03/06 06:04:47;;;;;;;13.40;8.00;;;;;;;-3.70;77.32;100650.62;1711103;82;21419;-73
2021/03/06 06:07:18;;;;;;;12.43;7.55;;;;;;;-3.28;77.48;100647.38;1712216;82;21252;-73
2021/03/06 06:09:46;;;;;;;15.43;9.70;;;;;;;-2.89;77.03;100647.43;1709667;82;21274;-74
2021/03/06 06:12:14;;;;;;;17.57;10.68;;;;;;;-2.57;76.82;100651.97;1712886;82;22224;-73
2021/03/06 06:14:41;;;;;;;19.50;10.23;;;;;;;-2.26;76.88;100647.47;1714062;82;21322;-73
2021/03/06 06:17:10;;;;;;;14.83;8.08;;;;;;;-1.77;77.06;100650.92;1720887;82;21247;-74
2021/03/06 06:19:39;;;;;;;9.58;5.83;;;;;;;-1.27;77.19;100652.19;1714035;82;21673;-74
2021/03/06 06:22:20;;;;;;;7.62;5.22;;;;;;;-0.71;77.06;100655.14;1709278;82;21192;-73
2021/03/06 06:24:49;;;;;;;10.23;5.25;;;;;;;-0.13;77.39;100652.44;1716839;82;21234;-73
2021/03/06 06:27:29;;;;;;;7.70;4.22;;;;;;;0.47;76.98;100656.45;1716460;82;21590;-74
2021/03/06 06:29:58;;;;;;;7.25;4.40;;;;;;;0.99;76.85;100652.15;1713837;81;21235;-73
2021/03/06 06:32:43;;;;;;;7.37;3.92;;;;;;;1.48;76.97;100651.98;1720058;82;21246;-74
2021/03/06 06:35:14;;;;;;;6.72;4.10;;;;;;;1.86;76.92;100653.00;1719664;82;22353;-74
2021/03/06 06:37:57;;;;;;;8.85;4.90;;;;;;;1.86;76.45;100646.13;1710113;82;21222;-74
2021/03/06 06:40:28;;;;;;;7.67;5.60;;;;;;;1.43;76.17;100649.84;1718966;82;21677;-73
2021/03/06 06:42:56;;;;;;;10.63;5.17;;;;;;;0.96;76.44;100654.27;1713509;82;21705;-73
2021/03/06 06:45:26;;;;;;;6.80;5.53;;;;;;;0.59;76.79;100661.71;1720348;81;21313;-73
2021/03/06 06:47:53;;;;;;;8.83;5.40;;;;;;;0.32;77.17;100670.02;1696124;82;21214;-72
2021/03/06 06:50:32;;;;;;;;;;;;;;;0.02;77.13;100670.56;1717119;82;22374;-73
2021/03/06 06:53:00;;;;;;;8.48;4.97;;;;;;;-0.27;77.34;100673.67;1734352;81;20585;-73
2021/03/06 06:55:39;;;;;;;8.60;4.95;;;;;;;-0.45;77.66;100674.71;1740674;80;21155;-76
2021/03/06 06:58:07;;;;;;;11.35;4.97;;;;;;;-0.60;77.71;100675.80;1742100;81;21250;-78
2021/03/06 07:00:36;;;;;;;8.90;5.20;;;;;;;-0.67;78.09;100677.44;1742439;79;21236;-75
2021/03/06 07:03:05;;;;;;;9.15;4.97;;;;;;;-0.69;78.17;100672.27;1740333;81;21639;-77
2021/03/06 07:05:38;;;;;;;8.20;5.12;;;;;;;-0.64;78.23;100684.28;1744882;81;21220;-74
2021/03/06 07:08:09;;;;;;;11.38;6.20;;;;;;;-0.59;78.29;100677.09;1741206;81;21184;-75
2021/03/06 07:10:39;;;;;;;11.40;5.45;;;;;;;-0.54;78.25;100679.73;1711843;81;21255;-75
2021/03/06 07:13:09;;;;;;;12.23;6.15;;;;;;;-0.46;78.39;100683.27;1743083;81;21217;-76
2021/03/06 07:15:39;;;;;;;14.63;6.60;;;;;;;-0.34;78.43;100685.97;1746075;81;22191;-76
2021/03/06 07:18:09;;;;;;;13.98;6.20;;;;;;;-0.29;78.29;100680.48;1743913;81;21856;-78
2021/03/06 07:20:39;;;;;;;13.62;6.87;;;;;;;-0.21;78.38;100684.86;1741582;81;21210;-75
2021/03/06 07:23:17;;;;;;;12.05;6.35;;;;;;;-0.21;78.24;100684.43;1742250;81;22237;-75
2021/03/06 07:25:45;;;;;;;14.93;6.67;;;;;;;-0.21;78.21;100683.15;1738283;81;21228;-75
2021/03/06 07:28:12;;;;;;;11.57;6.58;;;;;;;-0.07;78.42;100680.74;1745102;81;21515;-73
2021/03/06 07:30:39;;;;;;;13.03;7.37;;;;;;;-0.01;78.35;100675.67;1747455;81;21255;-74
2021/03/06 07:33:08;;;;;;;13.72;9.13;;;;;;;0.16;78.48;100681.84;1740939;81;21231;-73
2021/03/06 07:35:40;;;;;;;14.05;8.05;;;;;;;0.27;78.27;100678.53;1744622;80;21168;-72
2021/03/06 07:38:16;;;;;;;9.23;6.62;;;;;;;0.36;78.33;100670.91;1740433;81;21194;-74
2021/03/06 07:40:59;;;;;;;11.15;6.20;;;;;;;0.55;78.35;100671.52;1744479;80;21149;-73
2021/03/06 07:43:35;;;;;;;11.63;6.40;;;;;;;0.73;78.19;100671.22;1727907;80;21278;-72
2021/03/06 07:46:04;;;;;;;11.68;7.08;;;;;;;0.82;78.29;100675.17;1706786;81;21219;-73
2021/03/06 07:48:37;;;;;;;11.53;6.80;;;;;;;1.01;78.30;100673.58;1720506;81;21290;-73
2021/03/06 07:51:13;;;;;;;10.10;6.78;;;;;;;1.26;78.26;100668.16;1839319;75;22805;-73
2021/03/06 07:53:46;;;;;;;11.93;6.78;;;;;;;1.31;78.07;100661.33;1813528;77;21061;-71
2021/03/06 07:56:13;;;;;;;14.65;6.55;;;;;;;1.46;78.08;100658.86;1811788;77;21440;-71
2021/03/06 07:58:52;;;;;;;;;;;;;;;1.63;78.09;100654.22;1808682;77;21071;-71
2021/03/06 08:01:32;;;;;;;11.90;6.28;;;;;;;1.78;78.11;100649.11;1805404;77;20208;-72
2021/03/06 08:04:00;;;;;;;9.53;5.05;;;;;;;1.92;78.25;100646.14;1811981;77;21044;-71
2021/03/06 08:06:32;;;;;;;10.70;6.28;;;;;;;2.05;78.04;100648.77;1815699;77;21384;-73
2021/03/06 08:09:09;;;;;;;9.90;5.70;;;;;;;2.05;78.01;100638.47;1806828;77;21219;-72
2021/03/06 08:11:43;;;;;;;7.87;4.83;;;;;;;2.10;78.11;100639.31;1808724;77;21258;-71
2021/03/06 08:14:35;;;;;;;10.75;5.47;;;;;;;2.18;78.02;100629.87;1807983;77;21268;-71
2021/03/06 08:17:02;;;;;;;6.15;4.53;;;;;;;2.28;78.11;100634.20;1810936;77;21262;-72
2021/03/06 08:19:30;;;;;;;7.28;4.25;;;;;;;2.36;77.91;100635.50;1746006;80;27180;-73
2021/03/06 08:22:15;;;;;;;9.15;5.10;;;;;;;2.36;77.96;100637.64;1734782;81;21284;-74
2021/03/06 08:24:42;;;;;;;8.53;4.87;;;;;;;2.44;77.90;100639.80;1749143;80;21207;-73
2021/03/06 08:27:13;;;;;;;9.35;4.75;;;;;;;2.50;77.83;100636.80;1746787;79;21454;-72
2021/03/06 08:29:43;;;;;;;6.35;3.77;;;;;;;2.49;77.68;100636.35;1748834;80;21223;-73
2021/03/06 08:32:27;;;;;;;10.28;5.30;;;;;;;2.50;77.62;100640.67;1775442;78;21236;-75
2021/03/06 08:35:01;;;;;;;8.75;5.05;;;;;;;2.51;77.65;100630.78;1770925;78;22172;-73
2021/03/06 08:38:02;;;;;;;8.13;4.50;;;;;;;2.64;77.75;100628.20;1765908;78;22493;-71
2021/03/06 08:40:30;;;;;;;6.72;4.55;;;;;;;2.65;77.69;100629.91;1724135;79;21245;-72
2021/03/06 08:42:58;;;;;;;;;;;;;;;2.74;77.72;100626.45;1756078;79;21964;-71
2021/03/06 08:45:29;;;;;;;6.87;3.90;;;;;;;2.84;77.59;100628.18;1760139;79;20260;-72
2021/03/06 08:48:06;;;;;;;6.87;4.50;;;;;;;2.91;77.69;100623.45;1756920;79;21194;-72
2021/03/06 08:50:37;;;;;;;8.60;4.67;;;;;;;3.03;77.79;100626.87;1697557;82;21246;-72
2021/03/06 08:53:13;;;;;;;7.78;4.67;;;;;;;3.11;77.50;100623.41;1725461;80;22562;-72
2021/03/06 08:55:49;;;;;;;9.60;4.65;;;;;;;3.19;77.17;100622.08;1831366;76;23799;-72
2021/03/06 09:00:56;;;;;;;11.43;4.17;;;;;;;3.34;77.46;100613.02;1829576;76;22306;-72
2021/03/06 09:03:27;;;;;;;5.62;3.58;;;;;;;3.35;77.03;100621.17;1800681;77;21614;-72
2021/03/06 09:06:00;;;;;;;9.78;3.72;;;;;;;3.36;77.21;100624.61;1797019;77;22183;-71
2021/03/06 09:08:28;;;;;;;11.50;4.10;;;;;;;3.39;77.09;100622.05;1801876;77;21712;-73
2021/03/06 09:10:58;;;;;;;5.53;3.20;;;;;;;3.50;77.29;100606.48;1802556;77;21194;-73
2021/03/06 09:13:30;;;;;;;7.92;3.60;;;;;;;3.61;77.25;100602.57;1797819;77;21337;-73
2021/03/06 09:16:03;;;;;;;8.43;3.65;;;;;;;3.75;77.25;100602.95;1805329;77;21085;-73
2021/03/06 09:18:34;;;;;;;6.92;3.33;;;;;;;3.74;76.68;100596.05;1797782;77;22999;-74
2021/03/06 09:21:23;;;;;;;5.85;3.55;;;;;;;3.68;76.51;100587.48;1800551;77;21073;-73
2021/03/06 09:23:52;;;;;;;9.95;4.35;;;;;;;3.71;76.66;100590.90;1794307;77;21092;-73
2021/03/06 09:26:26;;;;;;;4.87;2.95;;;;;;;3.62;76.52;100588.38;1804366;77;22246;-73
2021/03/06 09:28:56;;;;;;;9.05;2.83;;;;;;;3.65;75.89;100592.67;1740235;80;21245;-73
2021/03/06 09:31:28;;;;;;;5.12;2.83;;;;;;;3.56;76.28;100581.95;1763370;79;22090;-73
2021/03/06 09:33:56;;;;;;;7.60;2.55;;;;;;;3.61;76.43;100585.34;1767169;79;21505;-73
2021/03/06 09:36:30;;;;;;;2.47;1.62;;;;;;;3.67;76.46;100582.75;1768223;79;21214;-74
2021/03/06 09:39:00;;;;;;;4.12;2.08;;;;;;;3.71;75.99;100592.19;1760655;79;21178;-74
2021/03/06 09:44:14;;;;;;;6.65;2.80;;;;;;;3.75;75.95;100587.45;1811660;76;27990;-73
2021/03/06 09:46:41;;;;;;;4.22;2.05;;;;;;;3.86;76.21;100594.26;1803199;77;21319;-70
2021/03/06 09:49:14;;;;;;;4.10;2.05;;;;;;;3.93;75.69;100585.62;1803196;78;21672;-74
2021/03/06 09:51:54;;;;;;;4.80;2.50;;;;;;;3.88;75.65;100584.78;1803505;78;21060;-72
2021/03/06 09:54:25;;;;;;;5.28;2.40;;;;;;;3.78;75.54;100587.42;1749058;80;21120;-72
2021/03/06 09:56:59;;;;;;;2.67;1.70;;;;;;;3.76;75.14;100586.57;1729810;82;21694;-74
2021/03/06 09:59:28;;;;;;;2.42;1.72;;;;;;;3.77;75.53;100587.42;1742338;80;21065;-74
2021/03/06 10:02:08;;;;;;;6.75;2.37;;;;;;;3.89;75.70;100574.86;1743362;81;22115;-74
2021/03/06 10:04:35;;;;;;;2.77;1.35;;;;;;;4.01;75.52;100576.95;1740073;81;21219;-75
2021/03/06 10:07:08;;;;;;;;;;;;;;;4.11;75.26;100577.72;1770327;79;21678;-75
2021/03/06 10:09:38;;;;;;;4.83;1.75;;;;;;;4.18;74.90;100571.66;1740366;80;20605;-75
2021/03/06 10:12:09;;;;;;;4.12;1.87;;;;;;;4.17;75.03;100571.24;1747521;80;21140;-75
2021/03/06 10:14:37;;;;;;;4.45;1.60;;;;;;;4.19;74.91;100573.36;1748045;80;21298;-75
2021/03/06 10:17:07;;;;;;;2.30;1.30;;;;;;;4.24;74.76;100571.59;1735548;79;21203;-73
2021/03/06 10:19:46;;;;;;;4.08;1.45;;;;;;;4.22;74.63;100572.48;1766479;79;21018;-76
2021/03/06 10:22:16;;;;;;;5.58;1.60;;;;;;;4.26;74.66;100572.45;1765810;79;22190;-73
2021/03/06 10:25:02;;;;;;;3.25;1.70;;;;;;;4.29;74.34;100571.58;1744716;80;21590;-74
2021/03/06 10:27:36;;;;;;;3.17;1.37;;;;;;;4.26;74.17;100573.75;1744911;80;22191;-73
2021/03/06 10:30:23;;;;;;;6.87;1.62;;;;;;;4.35;74.26;100573.25;1768367;79;21165;-74
2021/03/06 10:32:55;;;;;;;2.12;1.20;;;;;;;4.44;74.29;100578.34;1771308;78;21139;-73
2021/03/06 10:35:42;;;;;;;3.37;1.47;;;;;;;4.57;74.14;100564.44;1705181;81;21163;-76
2021/03/06 10:38:27;;;;;;;4.53;1.32;;;;;;;4.70;73.93;100555.70;1828830;77;22347;-76
2021/03/06 10:41:00;;;;;;;3.30;1.45;;;;;;;4.75;73.74;100549.60;1797473;77;21029;-75
2021/03/06 10:43:43;;;;;;;4.70;1.57;;;;;;;4.84;73.94;100554.67;1747663;80;21204;-73
2021/03/06 10:46:22;;;;;;;2.58;1.42;;;;;;;4.98;73.61;100551.50;1765506;79;21053;-74
2021/03/06 10:49:06;;;;;;;2.27;1.22;;;;;;;4.93;73.08;100539.08;1765075;80;22195;-74
2021/03/06 10:51:53;;;;;;;4.17;1.60;;;;;;;4.84;73.07;100543.03;1834002;76;22034;-73
2021/03/06 10:54:22;;;;;;;2.42;1.47;;;;;;;4.76;73.25;100541.84;1799056;77;20978;-72
2021/03/06 10:57:04;;;;;;;6.30;2.72;;;;;;;4.78;72.62;100531.45;1803149;77;21386;-73
2021/03/06 10:59:34;;;;;;;5.00;1.85;;;;;;;4.68;72.84;100521.22;1801120;77;22312;-73
2021/03/06 11:02:03;;;;;;;3.47;1.70;;;;;;;4.56;72.62;100525.20;1804160;77;21074;-76
2021/03/06 11:04:35;;;;;;;2.70;1.52;;;;;;;4.50;72.48;100521.39;1809375;77;21068;-72
2021/03/06 11:07:08;;;;;;;5.78;2.70;;;;;;;4.43;72.56;100518.45;1800847;77;21722;-74
2021/03/06 11:09:38;;;;;;;2.12;1.30;;;;;;;4.44;72.38;100511.11;1800534;77;22115;-73
2021/03/06 11:12:20;;;;;;;5.08;1.45;;;;;;;4.41;72.05;100507.27;1803192;77;22578;-74
2021/03/06 11:15:04;;;;;;;5.00;2.20;;;;;;;4.31;71.89;100494.84;1804473;79;21647;-73
2021/03/06 11:17:31;;;;;;;2.35;1.10;;;;;;;4.23;71.90;100494.94;1806956;77;21681;-72
2021/03/06 11:19:59;;;;;;;4.67;1.05;;;;;;;4.18;71.57;100491.52;1808069;77;21182;-73
2021/03/06 11:22:26;;;;;;;2.17;1.10;;;;;;;4.12;71.74;100483.83;1807382;79;21208;-73
2021/03/06 11:24:53;;;;;;;5.35;1.45;;;;;;;4.06;71.47;100475.25;1807233;77;21059;-73
2021/03/06 11:27:20;;;;;;;2.60;1.02;;;;;;;4.04;71.39;100485.62;1804450;77;20993;-72
2021/03/06 11:29:47;;;;;;;1.82;1.00;;;;;;;4.04;71.25;100475.28;1806789;77;21221;-71
2021/03/06 11:32:15;;;;;;;1.17;0.90;;;;;;;4.00;71.19;100480.03;1804655;77;21701;-73
2021/03/06 11:34:42;;;;;;;2.98;1.27;;;;;;;4.02;71.36;100487.35;1803982;77;22256;-72
2021/03/06 11:37:09;;;;;;;1.90;1.32;;;;;;;4.06;71.20;100476.11;1805370;77;21312;-73
2021/03/06 11:39:36;;;;;;;2.22;1.20;;;;;;;4.05;70.83;100466.65;1798326;77;21138;-72
2021/03/06 11:42:04;;;;;;;3.05;1.20;;;;;;;4.06;70.21;100466.20;1802378;77;21571;-73
2021/03/06 11:44:31;;;;;;;3.55;1.20;;;;;;;4.00;70.45;100448.59;1780321;79;21123;-72
2021/03/06 11:46:58;;;;;;;1.67;0.80;;;;;;;4.02;69.78;100451.17;1805254;79;22168;-71
2021/03/06 11:49:25;;;;;;;2.08;1.02;;;;;;;3.92;69.82;100452.11;1806809;77;21600;-72
2021/03/06 11:51:52;;;;;;;2.50;1.05;;;;;;;3.96;70.43;100449.94;1802772;77;22699;-70